sensor_id;sensor_type;location;lat;lon;timestamp;P1;durP1;ratioP1;P2;durP2;ratioP2
52124;SDS011;38119;52.710;6.398;2022-10-04T00:01:50;15.75;;;6.75;;
52124;SDS011;38119;52.710;6.398;2022-10-04T00:06:50;17.50;;;7.20;;
52124;SDS011;38119;52.710;6.398;2022-10-04T00:09:25;14.07;;;7.70;;
52124;SDS011;38119;52.710;6.398;2022-10-04T00:11:57;10.63;;;6.70;;
52124;SDS011;38119;52.710;6.398;2022-10-04T00:14:27;13.95;;;7.57;;
52124;SDS011;38119;52.710;6.398;2022-10-04T00:17:06;17.60;;;7.43;;
52124;SDS011;38119;52.710;6.398;2022-10-04T00:19:39;13.13;;;7.10;;
52124;SDS011;38119;52.710;6.398;2022-10-04T00:22:15;13.68;;;7.22;;
52124;SDS011;38119;52.710;6.398;2022-10-04T00:27:36;13.50;;;7.07;;
52124;SDS011;38119;52.710;6.398;2022-10-04T00:40:34;14.13;;;6.85;;
52124;SDS011;38119;52.710;6.398;2022-10-04T00:43:15;13.77;;;6.97;;
52124;SDS011;38119;52.710;6.398;2022-10-04T00:45:46;14.20;;;6.85;;
52124;SDS011;38119;52.710;6.398;2022-10-04T00:48:59;13.25;;;6.75;;
52124;SDS011;38119;52.710;6.398;2022-10-04T01:01:22;11.53;;;6.30;;
52124;SDS011;38119;52.710;6.398;2022-10-04T01:03:50;17.48;;;7.30;;
52124;SDS011;38119;52.710;6.398;2022-10-04T01:06:20;17.42;;;7.57;;
52124;SDS011;38119;52.710;6.398;2022-10-04T01:08:50;14.73;;;8.20;;
52124;SDS011;38119;52.710;6.398;2022-10-04T01:11:25;15.70;;;6.65;;
52124;SDS011;38119;52.710;6.398;2022-10-04T01:13:57;14.98;;;6.72;;
52124;SDS011;38119;52.710;6.398;2022-10-04T01:16:33;12.32;;;6.72;;
52124;SDS011;38119;52.710;6.398;2022-10-04T01:22:51;16.17;;;7.05;;
52124;SDS011;38119;52.710;6.398;2022-10-04T01:24:59;14.07;;;6.43;;
52124;SDS011;38119;52.710;6.398;2022-10-04T01:27:35;16.35;;;7.28;;
52124;SDS011;38119;52.710;6.398;2022-10-04T01:30:07;13.43;;;6.90;;
52124;SDS011;38119;52.710;6.398;2022-10-04T01:32:36;15.30;;;7.20;;
52124;SDS011;38119;52.710;6.398;2022-10-04T01:35:03;12.40;;;6.85;;
52124;SDS011;38119;52.710;6.398;2022-10-04T01:37:33;16.40;;;7.18;;
52124;SDS011;38119;52.710;6.398;2022-10-04T01:39:59;17.13;;;7.03;;
52124;SDS011;38119;52.710;6.398;2022-10-04T01:42:31;13.18;;;6.85;;
52124;SDS011;38119;52.710;6.398;2022-10-04T01:45:09;15.23;;;6.50;;
52124;SDS011;38119;52.710;6.398;2022-10-04T01:47:52;13.10;;;6.60;;
52124;SDS011;38119;52.710;6.398;2022-10-04T01:50:35;14.13;;;6.63;;
52124;SDS011;38119;52.710;6.398;2022-10-04T01:55:45;15.48;;;6.75;;
52124;SDS011;38119;52.710;6.398;2022-10-04T01:58:24;14.55;;;6.82;;
52124;SDS011;38119;52.710;6.398;2022-10-04T02:00:55;14.45;;;7.10;;
52124;SDS011;38119;52.710;6.398;2022-10-04T02:03:31;16.90;;;7.20;;
52124;SDS011;38119;52.710;6.398;2022-10-04T02:06:00;17.00;;;7.13;;
52124;SDS011;38119;52.710;6.398;2022-10-04T02:08:30;18.25;;;7.10;;
52124;SDS011;38119;52.710;6.398;2022-10-04T02:10:58;15.02;;;7.43;;
52124;SDS011;38119;52.710;6.398;2022-10-04T02:13:26;16.90;;;7.20;;
52124;SDS011;38119;52.710;6.398;2022-10-04T02:15:57;15.63;;;6.90;;
52124;SDS011;38119;52.710;6.398;2022-10-04T02:18:23;13.85;;;6.45;;
52124;SDS011;38119;52.710;6.398;2022-10-04T02:20:51;14.80;;;7.40;;
52124;SDS011;38119;52.710;6.398;2022-10-04T02:23:19;14.07;;;6.82;;
52124;SDS011;38119;52.710;6.398;2022-10-04T02:25:46;14.52;;;7.10;;
52124;SDS011;38119;52.710;6.398;2022-10-04T02:28:12;17.20;;;7.18;;
52124;SDS011;38119;52.710;6.398;2022-10-04T02:30:48;14.65;;;7.30;;
52124;SDS011;38119;52.710;6.398;2022-10-04T02:33:40;12.50;;;7.00;;
52124;SDS011;38119;52.710;6.398;2022-10-04T02:36:08;16.98;;;7.32;;
52124;SDS011;38119;52.710;6.398;2022-10-04T02:38:37;11.18;;;7.25;;
52124;SDS011;38119;52.710;6.398;2022-10-04T02:44:48;15.13;;;6.60;;
52124;SDS011;38119;52.710;6.398;2022-10-04T02:47:06;13.05;;;7.68;;
52124;SDS011;38119;52.710;6.398;2022-10-04T02:49:45;11.93;;;7.28;;
52124;SDS011;38119;52.710;6.398;2022-10-04T02:52:32;13.80;;;7.13;;
52124;SDS011;38119;52.710;6.398;2022-10-04T02:55:14;14.48;;;7.28;;
52124;SDS011;38119;52.710;6.398;2022-10-04T02:57:45;18.63;;;7.75;;
52124;SDS011;38119;52.710;6.398;2022-10-04T03:02:37;18.23;;;7.82;;
52124;SDS011;38119;52.710;6.398;2022-10-04T03:05:07;16.15;;;8.07;;
52124;SDS011;38119;52.710;6.398;2022-10-04T03:07:36;13.30;;;8.07;;
52124;SDS011;38119;52.710;6.398;2022-10-04T03:10:06;14.75;;;7.95;;
52124;SDS011;38119;52.710;6.398;2022-10-04T03:12:36;14.35;;;8.60;;
52124;SDS011;38119;52.710;6.398;2022-10-04T03:15:05;18.55;;;9.05;;
52124;SDS011;38119;52.710;6.398;2022-10-04T03:17:35;15.38;;;9.52;;
52124;SDS011;38119;52.710;6.398;2022-10-04T03:20:02;17.25;;;9.23;;
52124;SDS011;38119;52.710;6.398;2022-10-04T03:22:29;17.05;;;8.63;;
52124;SDS011;38119;52.710;6.398;2022-10-04T03:24:55;13.90;;;8.82;;
52124;SDS011;38119;52.710;6.398;2022-10-04T03:27:27;14.73;;;9.10;;
52124;SDS011;38119;52.710;6.398;2022-10-04T03:29:55;17.80;;;9.48;;
52124;SDS011;38119;52.710;6.398;2022-10-04T03:32:23;15.68;;;9.20;;
52124;SDS011;38119;52.710;6.398;2022-10-04T03:37:17;18.55;;;9.63;;
52124;SDS011;38119;52.710;6.398;2022-10-04T03:39:45;19.88;;;9.82;;
52124;SDS011;38119;52.710;6.398;2022-10-04T03:42:17;15.70;;;9.40;;
52124;SDS011;38119;52.710;6.398;2022-10-04T03:44:49;16.23;;;8.77;;
52124;SDS011;38119;52.710;6.398;2022-10-04T03:47:28;18.23;;;9.32;;
52124;SDS011;38119;52.710;6.398;2022-10-04T03:49:57;14.13;;;8.95;;
52124;SDS011;38119;52.710;6.398;2022-10-04T03:54:57;15.50;;;9.65;;
52124;SDS011;38119;52.710;6.398;2022-10-04T03:57:25;17.60;;;9.10;;
52124;SDS011;38119;52.710;6.398;2022-10-04T03:59:52;19.38;;;10.13;;
52124;SDS011;38119;52.710;6.398;2022-10-04T04:08:10;20.75;;;9.90;;
52124;SDS011;38119;52.710;6.398;2022-10-04T04:10:42;16.85;;;10.05;;
52124;SDS011;38119;52.710;6.398;2022-10-04T04:16:14;18.85;;;10.30;;
52124;SDS011;38119;52.710;6.398;2022-10-04T04:18:43;19.40;;;9.88;;
52124;SDS011;38119;52.710;6.398;2022-10-04T04:21:13;17.75;;;10.55;;
52124;SDS011;38119;52.710;6.398;2022-10-04T04:23:46;17.90;;;10.15;;
52124;SDS011;38119;52.710;6.398;2022-10-04T04:26:25;17.17;;;9.85;;
52124;SDS011;38119;52.710;6.398;2022-10-04T04:31:51;16.17;;;10.45;;
52124;SDS011;38119;52.710;6.398;2022-10-04T04:34:21;21.13;;;10.20;;
52124;SDS011;38119;52.710;6.398;2022-10-04T04:36:55;16.63;;;10.45;;
52124;SDS011;38119;52.710;6.398;2022-10-04T04:39:23;14.85;;;9.70;;
52124;SDS011;38119;52.710;6.398;2022-10-04T04:42:06;16.25;;;10.82;;
52124;SDS011;38119;52.710;6.398;2022-10-04T04:44:44;19.73;;;11.02;;
52124;SDS011;38119;52.710;6.398;2022-10-04T04:47:27;20.45;;;10.50;;
52124;SDS011;38119;52.710;6.398;2022-10-04T04:50:00;15.35;;;10.57;;
52124;SDS011;38119;52.710;6.398;2022-10-04T04:52:32;16.17;;;10.38;;
52124;SDS011;38119;52.710;6.398;2022-10-04T04:55:00;18.52;;;10.27;;
52124;SDS011;38119;52.710;6.398;2022-10-04T04:57:26;15.93;;;11.00;;
52124;SDS011;38119;52.710;6.398;2022-10-04T04:59:53;18.63;;;10.27;;
52124;SDS011;38119;52.710;6.398;2022-10-04T05:02:28;19.67;;;10.30;;
52124;SDS011;38119;52.710;6.398;2022-10-04T05:05:15;18.05;;;10.13;;
52124;SDS011;38119;52.710;6.398;2022-10-04T05:07:43;17.10;;;10.70;;
52124;SDS011;38119;52.710;6.398;2022-10-04T05:10:28;20.35;;;10.68;;
52124;SDS011;38119;52.710;6.398;2022-10-04T05:12:56;21.95;;;11.05;;
52124;SDS011;38119;52.710;6.398;2022-10-04T05:15:35;17.25;;;11.00;;
52124;SDS011;38119;52.710;6.398;2022-10-04T05:20:52;24.63;;;12.20;;
52124;SDS011;38119;52.710;6.398;2022-10-04T05:23:19;19.23;;;11.63;;
52124;SDS011;38119;52.710;6.398;2022-10-04T05:25:45;20.50;;;11.25;;
52124;SDS011;38119;52.710;6.398;2022-10-04T05:28:12;17.63;;;11.27;;
52124;SDS011;38119;52.710;6.398;2022-10-04T05:30:42;19.38;;;12.02;;
52124;SDS011;38119;52.710;6.398;2022-10-04T05:33:14;18.25;;;11.48;;
52124;SDS011;38119;52.710;6.398;2022-10-04T05:38:48;18.08;;;11.25;;
52124;SDS011;38119;52.710;6.398;2022-10-04T05:47:16;22.92;;;11.50;;
52124;SDS011;38119;52.710;6.398;2022-10-04T05:49:47;22.50;;;11.27;;
52124;SDS011;38119;52.710;6.398;2022-10-04T05:52:52;18.42;;;12.20;;
52124;SDS011;38119;52.710;6.398;2022-10-04T05:55:14;16.33;;;10.98;;
52124;SDS011;38119;52.710;6.398;2022-10-04T06:06:04;24.63;;;12.13;;
52124;SDS011;38119;52.710;6.398;2022-10-04T06:08:45;18.30;;;11.60;;
52124;SDS011;38119;52.710;6.398;2022-10-04T06:11:37;22.48;;;11.98;;
52124;SDS011;38119;52.710;6.398;2022-10-04T06:16:48;17.17;;;11.70;;
52124;SDS011;38119;52.710;6.398;2022-10-04T06:24:47;23.52;;;12.63;;
52124;SDS011;38119;52.710;6.398;2022-10-04T06:27:24;18.40;;;12.55;;
52124;SDS011;38119;52.710;6.398;2022-10-04T06:30:05;20.25;;;11.63;;
52124;SDS011;38119;52.710;6.398;2022-10-04T06:43:21;21.75;;;12.70;;
52124;SDS011;38119;52.710;6.398;2022-10-04T06:45:59;18.60;;;12.30;;
52124;SDS011;38119;52.710;6.398;2022-10-04T06:48:48;18.17;;;12.27;;
52124;SDS011;38119;52.710;6.398;2022-10-04T06:54:38;16.90;;;12.20;;
52124;SDS011;38119;52.710;6.398;2022-10-04T07:05:47;21.27;;;13.77;;
52124;SDS011;38119;52.710;6.398;2022-10-04T07:11:50;26.15;;;13.90;;
52124;SDS011;38119;52.710;6.398;2022-10-04T07:14:25;18.88;;;13.75;;
52124;SDS011;38119;52.710;6.398;2022-10-04T07:17:02;18.90;;;13.85;;
52124;SDS011;38119;52.710;6.398;2022-10-04T07:19:46;22.75;;;14.43;;
52124;SDS011;38119;52.710;6.398;2022-10-04T07:22:15;26.30;;;14.88;;
52124;SDS011;38119;52.710;6.398;2022-10-04T07:31:03;20.48;;;13.93;;
52124;SDS011;38119;52.710;6.398;2022-10-04T07:33:40;22.10;;;14.57;;
52124;SDS011;38119;52.710;6.398;2022-10-04T07:36:14;23.50;;;14.45;;
52124;SDS011;38119;52.710;6.398;2022-10-04T07:38:55;23.83;;;15.02;;
52124;SDS011;38119;52.710;6.398;2022-10-04T07:47:02;20.35;;;15.10;;
52124;SDS011;38119;52.710;6.398;2022-10-04T07:49:44;21.08;;;15.57;;
52124;SDS011;38119;52.710;6.398;2022-10-04T07:52:23;27.67;;;16.27;;
52124;SDS011;38119;52.710;6.398;2022-10-04T07:55:10;23.92;;;16.05;;
52124;SDS011;38119;52.710;6.398;2022-10-04T07:57:45;25.60;;;15.50;;
52124;SDS011;38119;52.710;6.398;2022-10-04T08:00:23;25.92;;;16.52;;
52124;SDS011;38119;52.710;6.398;2022-10-04T08:05:38;26.73;;;16.13;;
52124;SDS011;38119;52.710;6.398;2022-10-04T08:10:59;24.80;;;15.70;;
52124;SDS011;38119;52.710;6.398;2022-10-04T08:13:51;24.85;;;15.38;;
52124;SDS011;38119;52.710;6.398;2022-10-04T08:21:34;24.00;;;15.80;;
52124;SDS011;38119;52.710;6.398;2022-10-04T08:24:17;22.35;;;15.80;;
52124;SDS011;38119;52.710;6.398;2022-10-04T08:26:58;23.55;;;14.65;;
52124;SDS011;38119;52.710;6.398;2022-10-04T08:29:57;17.25;;;13.88;;
52124;SDS011;38119;52.710;6.398;2022-10-04T08:32:31;21.08;;;14.23;;
52124;SDS011;38119;52.710;6.398;2022-10-04T08:35:32;24.02;;;14.80;;
52124;SDS011;38119;52.710;6.398;2022-10-04T08:38:09;24.30;;;13.65;;
52124;SDS011;38119;52.710;6.398;2022-10-04T08:41:18;23.45;;;13.70;;
52124;SDS011;38119;52.710;6.398;2022-10-04T08:44:13;19.33;;;13.82;;
52124;SDS011;38119;52.710;6.398;2022-10-04T08:49:57;23.73;;;14.38;;
52124;SDS011;38119;52.710;6.398;2022-10-04T08:55:49;20.70;;;13.70;;
52124;SDS011;38119;52.710;6.398;2022-10-04T08:58:29;20.08;;;12.60;;
52124;SDS011;38119;52.710;6.398;2022-10-04T09:01:44;21.20;;;13.68;;
52124;SDS011;38119;52.710;6.398;2022-10-04T09:19:18;21.08;;;12.63;;
52124;SDS011;38119;52.710;6.398;2022-10-04T09:27:31;20.98;;;11.57;;
52124;SDS011;38119;52.710;6.398;2022-10-04T09:35:57;16.67;;;11.20;;
52124;SDS011;38119;52.710;6.398;2022-10-04T09:51:25;19.08;;;9.60;;
52124;SDS011;38119;52.710;6.398;2022-10-04T10:22:15;13.00;;;7.53;;
52124;SDS011;38119;52.710;6.398;2022-10-04T10:35:51;14.90;;;8.27;;
52124;SDS011;38119;52.710;6.398;2022-10-04T10:38:36;14.75;;;8.68;;
52124;SDS011;38119;52.710;6.398;2022-10-04T11:01:15;9.75;;;6.95;;
52124;SDS011;38119;52.710;6.398;2022-10-04T11:09:27;15.77;;;8.43;;
52124;SDS011;38119;52.710;6.398;2022-10-04T11:17:29;13.07;;;7.68;;
52124;SDS011;38119;52.710;6.398;2022-10-04T11:25:58;12.77;;;6.85;;
52124;SDS011;38119;52.710;6.398;2022-10-04T11:28:43;14.10;;;7.60;;
52124;SDS011;38119;52.710;6.398;2022-10-04T11:31:50;11.63;;;7.45;;
52124;SDS011;38119;52.710;6.398;2022-10-04T11:45:53;11.43;;;7.00;;
52124;SDS011;38119;52.710;6.398;2022-10-04T11:54:46;12.85;;;7.47;;
52124;SDS011;38119;52.710;6.398;2022-10-04T12:00:13;13.80;;;7.97;;
52124;SDS011;38119;52.710;6.398;2022-10-04T12:33:43;10.80;;;4.90;;
52124;SDS011;38119;52.710;6.398;2022-10-04T12:50:24;14.43;;;5.47;;
52124;SDS011;38119;52.710;6.398;2022-10-04T12:53:15;9.82;;;5.90;;
52124;SDS011;38119;52.710;6.398;2022-10-04T13:12:27;9.07;;;5.30;;
52124;SDS011;38119;52.710;6.398;2022-10-04T13:31:27;7.82;;;4.60;;
52124;SDS011;38119;52.710;6.398;2022-10-04T13:36:47;7.82;;;3.75;;
52124;SDS011;38119;52.710;6.398;2022-10-04T13:55:32;10.13;;;4.35;;
52124;SDS011;38119;52.710;6.398;2022-10-04T14:20:16;7.50;;;4.43;;
52124;SDS011;38119;52.710;6.398;2022-10-04T14:25:57;11.82;;;4.80;;
52124;SDS011;38119;52.710;6.398;2022-10-04T14:45:29;9.90;;;4.40;;
52124;SDS011;38119;52.710;6.398;2022-10-04T14:48:50;7.30;;;3.63;;
52124;SDS011;38119;52.710;6.398;2022-10-04T15:07:22;7.43;;;3.83;;
52124;SDS011;38119;52.710;6.398;2022-10-04T15:20:20;8.15;;;4.45;;
52124;SDS011;38119;52.710;6.398;2022-10-04T15:22:50;9.70;;;4.40;;
52124;SDS011;38119;52.710;6.398;2022-10-04T15:31:15;10.55;;;4.43;;
52124;SDS011;38119;52.710;6.398;2022-10-04T15:42:26;13.63;;;4.50;;
52124;SDS011;38119;52.710;6.398;2022-10-04T15:50:25;7.72;;;4.25;;
52124;SDS011;38119;52.710;6.398;2022-10-04T15:52:55;9.40;;;4.72;;
52124;SDS011;38119;52.710;6.398;2022-10-04T16:03:35;7.15;;;4.53;;
52124;SDS011;38119;52.710;6.398;2022-10-04T16:06:20;8.38;;;4.28;;
52124;SDS011;38119;52.710;6.398;2022-10-04T16:11:23;9.68;;;4.60;;
52124;SDS011;38119;52.710;6.398;2022-10-04T16:16:55;8.70;;;4.55;;
52124;SDS011;38119;52.710;6.398;2022-10-04T16:22:10;8.60;;;4.38;;
52124;SDS011;38119;52.710;6.398;2022-10-04T16:30:26;11.52;;;5.63;;
52124;SDS011;38119;52.710;6.398;2022-10-04T16:33:23;8.25;;;5.22;;
52124;SDS011;38119;52.710;6.398;2022-10-04T16:36:02;10.88;;;5.00;;
52124;SDS011;38119;52.710;6.398;2022-10-04T16:38:35;9.13;;;5.05;;
52124;SDS011;38119;52.710;6.398;2022-10-04T16:41:40;10.40;;;5.13;;
52124;SDS011;38119;52.710;6.398;2022-10-04T16:44:26;11.18;;;5.45;;
52124;SDS011;38119;52.710;6.398;2022-10-04T16:49:52;14.32;;;5.78;;
52124;SDS011;38119;52.710;6.398;2022-10-04T16:52:26;15.82;;;5.40;;
52124;SDS011;38119;52.710;6.398;2022-10-04T16:57:25;10.20;;;5.15;;
52124;SDS011;38119;52.710;6.398;2022-10-04T16:59:52;9.35;;;6.10;;
52124;SDS011;38119;52.710;6.398;2022-10-04T17:02:32;11.82;;;6.20;;
52124;SDS011;38119;52.710;6.398;2022-10-04T17:05:17;11.00;;;6.63;;
52124;SDS011;38119;52.710;6.398;2022-10-04T17:16:26;10.73;;;6.20;;
52124;SDS011;38119;52.710;6.398;2022-10-04T17:22:04;12.93;;;6.22;;
52124;SDS011;38119;52.710;6.398;2022-10-04T17:27:52;9.65;;;6.60;;
52124;SDS011;38119;52.710;6.398;2022-10-04T17:30:27;10.48;;;6.25;;
52124;SDS011;38119;52.710;6.398;2022-10-04T17:33:14;12.55;;;6.35;;
52124;SDS011;38119;52.710;6.398;2022-10-04T17:38:40;10.20;;;6.07;;
52124;SDS011;38119;52.710;6.398;2022-10-04T17:47:11;11.10;;;6.53;;
52124;SDS011;38119;52.710;6.398;2022-10-04T17:50:33;10.07;;;6.40;;
52124;SDS011;38119;52.710;6.398;2022-10-04T17:53:40;14.07;;;6.38;;
52124;SDS011;38119;52.710;6.398;2022-10-04T17:56:36;12.48;;;6.13;;
52124;SDS011;38119;52.710;6.398;2022-10-04T17:59:09;13.13;;;6.88;;
52124;SDS011;38119;52.710;6.398;2022-10-04T18:01:44;11.05;;;6.03;;
52124;SDS011;38119;52.710;6.398;2022-10-04T18:04:23;15.68;;;6.78;;
52124;SDS011;38119;52.710;6.398;2022-10-04T18:07:00;12.55;;;6.50;;
52124;SDS011;38119;52.710;6.398;2022-10-04T18:09:42;13.35;;;6.47;;
52124;SDS011;38119;52.710;6.398;2022-10-04T18:15:09;10.88;;;6.75;;
52124;SDS011;38119;52.710;6.398;2022-10-04T18:18:19;13.18;;;6.82;;
52124;SDS011;38119;52.710;6.398;2022-10-04T18:23:24;10.15;;;6.07;;
52124;SDS011;38119;52.710;6.398;2022-10-04T18:28:46;11.75;;;6.55;;
52124;SDS011;38119;52.710;6.398;2022-10-04T18:39:45;10.38;;;6.30;;
52124;SDS011;38119;52.710;6.398;2022-10-04T18:49:57;11.98;;;7.00;;
52124;SDS011;38119;52.710;6.398;2022-10-04T18:52:45;13.02;;;6.78;;
52124;SDS011;38119;52.710;6.398;2022-10-04T18:55:36;10.55;;;6.88;;
52124;SDS011;38119;52.710;6.398;2022-10-04T19:00:57;12.20;;;6.63;;
52124;SDS011;38119;52.710;6.398;2022-10-04T19:07:12;10.70;;;6.13;;
52124;SDS011;38119;52.710;6.398;2022-10-04T19:13:11;10.68;;;6.75;;
52124;SDS011;38119;52.710;6.398;2022-10-04T19:22:00;11.02;;;6.82;;
52124;SDS011;38119;52.710;6.398;2022-10-04T19:27:36;11.90;;;6.45;;
52124;SDS011;38119;52.710;6.398;2022-10-04T19:32:51;11.50;;;6.65;;
52124;SDS011;38119;52.710;6.398;2022-10-04T19:35:47;12.30;;;7.38;;
52124;SDS011;38119;52.710;6.398;2022-10-04T19:46:26;12.25;;;6.95;;
52124;SDS011;38119;52.710;6.398;2022-10-04T19:48:57;9.82;;;6.72;;
52124;SDS011;38119;52.710;6.398;2022-10-04T19:53:55;13.30;;;7.43;;
52124;SDS011;38119;52.710;6.398;2022-10-04T19:56:29;11.15;;;6.97;;
52124;SDS011;38119;52.710;6.398;2022-10-04T19:59:04;12.38;;;7.93;;
52124;SDS011;38119;52.710;6.398;2022-10-04T20:01:33;11.48;;;7.15;;
52124;SDS011;38119;52.710;6.398;2022-10-04T20:04:00;14.63;;;7.65;;
52124;SDS011;38119;52.710;6.398;2022-10-04T20:06:52;10.50;;;7.20;;
52124;SDS011;38119;52.710;6.398;2022-10-04T20:09:24;11.32;;;7.30;;
52124;SDS011;38119;52.710;6.398;2022-10-04T20:17:52;13.85;;;7.18;;
52124;SDS011;38119;52.710;6.398;2022-10-04T20:23:02;11.57;;;7.60;;
52124;SDS011;38119;52.710;6.398;2022-10-04T20:30:51;12.70;;;7.45;;
52124;SDS011;38119;52.710;6.398;2022-10-04T20:36:06;12.57;;;6.80;;
52124;SDS011;38119;52.710;6.398;2022-10-04T20:42:01;17.00;;;7.57;;
52124;SDS011;38119;52.710;6.398;2022-10-04T20:44:41;14.60;;;7.10;;
52124;SDS011;38119;52.710;6.398;2022-10-04T20:50:05;11.57;;;6.65;;
52124;SDS011;38119;52.710;6.398;2022-10-04T20:52:35;11.63;;;6.75;;
52124;SDS011;38119;52.710;6.398;2022-10-04T20:55:06;12.48;;;6.60;;
52124;SDS011;38119;52.710;6.398;2022-10-04T20:57:40;13.20;;;6.97;;
52124;SDS011;38119;52.710;6.398;2022-10-04T21:00:15;10.55;;;6.85;;
52124;SDS011;38119;52.710;6.398;2022-10-04T21:02:42;11.75;;;7.10;;
52124;SDS011;38119;52.710;6.398;2022-10-04T21:05:16;13.32;;;7.45;;
52124;SDS011;38119;52.710;6.398;2022-10-04T21:07:48;11.90;;;6.50;;
52124;SDS011;38119;52.710;6.398;2022-10-04T21:10:34;11.05;;;6.80;;
52124;SDS011;38119;52.710;6.398;2022-10-04T21:12:59;9.80;;;6.25;;
52124;SDS011;38119;52.710;6.398;2022-10-04T21:15:25;12.60;;;6.63;;
52124;SDS011;38119;52.710;6.398;2022-10-04T21:17:58;11.43;;;6.82;;
52124;SDS011;38119;52.710;6.398;2022-10-04T21:20:49;14.05;;;6.82;;
52124;SDS011;38119;52.710;6.398;2022-10-04T21:26:09;12.90;;;7.47;;
52124;SDS011;38119;52.710;6.398;2022-10-04T21:28:45;8.20;;;6.10;;
52124;SDS011;38119;52.710;6.398;2022-10-04T21:31:12;12.05;;;6.13;;
52124;SDS011;38119;52.710;6.398;2022-10-04T21:33:38;11.07;;;6.60;;
52124;SDS011;38119;52.710;6.398;2022-10-04T21:36:04;15.85;;;6.50;;
52124;SDS011;38119;52.710;6.398;2022-10-04T21:38:30;9.90;;;7.07;;
52124;SDS011;38119;52.710;6.398;2022-10-04T21:40:56;10.93;;;5.97;;
52124;SDS011;38119;52.710;6.398;2022-10-04T21:43:22;13.32;;;6.63;;
52124;SDS011;38119;52.710;6.398;2022-10-04T21:45:48;12.70;;;6.97;;
52124;SDS011;38119;52.710;6.398;2022-10-04T21:48:14;15.10;;;6.93;;
52124;SDS011;38119;52.710;6.398;2022-10-04T21:50:41;12.57;;;5.95;;
52124;SDS011;38119;52.710;6.398;2022-10-04T21:53:07;12.25;;;6.40;;
52124;SDS011;38119;52.710;6.398;2022-10-04T21:55:33;11.80;;;6.20;;
52124;SDS011;38119;52.710;6.398;2022-10-04T21:57:58;10.57;;;6.22;;
52124;SDS011;38119;52.710;6.398;2022-10-04T22:00:24;12.80;;;6.60;;
52124;SDS011;38119;52.710;6.398;2022-10-04T22:02:49;11.27;;;6.43;;
52124;SDS011;38119;52.710;6.398;2022-10-04T22:05:15;13.48;;;6.72;;
52124;SDS011;38119;52.710;6.398;2022-10-04T22:07:41;13.50;;;6.53;;
52124;SDS011;38119;52.710;6.398;2022-10-04T22:10:07;8.93;;;6.03;;
52124;SDS011;38119;52.710;6.398;2022-10-04T22:12:33;10.30;;;6.45;;
52124;SDS011;38119;52.710;6.398;2022-10-04T22:14:58;12.18;;;6.57;;
52124;SDS011;38119;52.710;6.398;2022-10-04T22:17:24;10.52;;;6.15;;
52124;SDS011;38119;52.710;6.398;2022-10-04T22:19:50;15.07;;;6.40;;
52124;SDS011;38119;52.710;6.398;2022-10-04T22:22:17;9.95;;;5.93;;
52124;SDS011;38119;52.710;6.398;2022-10-04T22:24:43;10.50;;;6.07;;
52124;SDS011;38119;52.710;6.398;2022-10-04T22:27:11;9.88;;;6.10;;
52124;SDS011;38119;52.710;6.398;2022-10-04T22:29:41;12.95;;;6.15;;
52124;SDS011;38119;52.710;6.398;2022-10-04T22:32:12;12.88;;;6.53;;
52124;SDS011;38119;52.710;6.398;2022-10-04T22:34:49;9.20;;;5.55;;
52124;SDS011;38119;52.710;6.398;2022-10-04T22:37:15;11.18;;;6.40;;
52124;SDS011;38119;52.710;6.398;2022-10-04T22:42:13;8.90;;;5.82;;
52124;SDS011;38119;52.710;6.398;2022-10-04T22:44:39;9.38;;;6.07;;
52124;SDS011;38119;52.710;6.398;2022-10-04T22:47:08;9.30;;;6.43;;
52124;SDS011;38119;52.710;6.398;2022-10-04T22:49:36;8.38;;;6.38;;
52124;SDS011;38119;52.710;6.398;2022-10-04T22:52:10;10.13;;;6.28;;
52124;SDS011;38119;52.710;6.398;2022-10-04T22:54:36;13.00;;;6.40;;
52124;SDS011;38119;52.710;6.398;2022-10-04T22:57:07;11.10;;;6.30;;
52124;SDS011;38119;52.710;6.398;2022-10-04T22:59:39;11.95;;;6.97;;
52124;SDS011;38119;52.710;6.398;2022-10-04T23:05:00;10.75;;;6.75;;
52124;SDS011;38119;52.710;6.398;2022-10-04T23:07:35;11.65;;;6.75;;
52124;SDS011;38119;52.710;6.398;2022-10-04T23:10:00;10.38;;;6.82;;
52124;SDS011;38119;52.710;6.398;2022-10-04T23:12:26;12.93;;;6.82;;
52124;SDS011;38119;52.710;6.398;2022-10-04T23:14:51;10.95;;;6.38;;
52124;SDS011;38119;52.710;6.398;2022-10-04T23:17:21;9.23;;;6.65;;
52124;SDS011;38119;52.710;6.398;2022-10-04T23:19:51;12.90;;;7.22;;
52124;SDS011;38119;52.710;6.398;2022-10-04T23:22:21;12.60;;;7.72;;
52124;SDS011;38119;52.710;6.398;2022-10-04T23:24:51;9.73;;;6.70;;
52124;SDS011;38119;52.710;6.398;2022-10-04T23:27:18;10.55;;;6.65;;
52124;SDS011;38119;52.710;6.398;2022-10-04T23:29:44;10.23;;;6.55;;
52124;SDS011;38119;52.710;6.398;2022-10-04T23:32:15;11.85;;;7.20;;
52124;SDS011;38119;52.710;6.398;2022-10-04T23:34:43;11.85;;;6.68;;
52124;SDS011;38119;52.710;6.398;2022-10-04T23:37:21;13.10;;;7.15;;
52124;SDS011;38119;52.710;6.398;2022-10-04T23:39:51;15.05;;;6.75;;
52124;SDS011;38119;52.710;6.398;2022-10-04T23:42:17;11.13;;;6.47;;
52124;SDS011;38119;52.710;6.398;2022-10-04T23:44:45;11.18;;;6.60;;
52124;SDS011;38119;52.710;6.398;2022-10-04T23:47:16;14.20;;;6.57;;
52124;SDS011;38119;52.710;6.398;2022-10-04T23:49:44;12.25;;;6.65;;
52124;SDS011;38119;52.710;6.398;2022-10-04T23:52:16;12.85;;;6.32;;
52124;SDS011;38119;52.710;6.398;2022-10-04T23:54:48;10.50;;;6.13;;
52124;SDS011;38119;52.710;6.398;2022-10-04T23:57:23;9.35;;;6.00;;
52124;SDS011;38119;52.710;6.398;2022-10-04T23:59:51;11.02;;;6.28;;
